Cap-des-Rosiers, Canada
Current Conditions -  °F | °C
As of 4:00 PM on Saturday 22 Nov 2014 (Local Time) from CYGP Reporting Station
Overcast Overcast  
Wind Chill:   Ceiling: 4000
Heat Index: 21°   Visibility: 15mi
Dew Point: 10°   Wind: 12mph
Humidity: 63%   Direction: 250°WSW
Pressure: 29.76"   Gusts: 21mph
Location:  48.86°N, 64.23°W
Report Text: CYGP 222100Z 25010G18KT 220V330 15SM BKN040 OVC120 M06/M12 A2976 RMK SC6AC2 SLP079
Loading
Personal Weather Stations






























Interactive Weather Map New forecast layout! Learn more

10-Day Weather Forecast

Advertisements
Track Severe Weather on mobile